메인 페이지
METAR-TAF:

METAR-TAF

공항 :

트빌리시 국제공항

트빌리시, 조지아

위도: 41-40-09N, 경도: 044-57-17E, 고도: 495m

현재 날씨관측

예보는 23분 전, 13:30시(UTC)에 발표되었습니다.
북서22kt
온도 24°C
습도 44%
기압 1019 hPa
시정 10km 이상
고도 5000ft 상공 구름 보통, 적란운.

METAR: UGTB 051330Z 32022KT 9999 SCT050CB 24/11 Q1019 NOSIG

시각: 17:53 (13:53 UTC)

예보

예보는 2 시간 53분 전, 11:00시(UTC)에 발표되었습니다.
예보 대상 시간: 05일 12시부터 06일 12시까지 (UTC)
북서15kt
시정 10km 이상
고도 5500ft 상공 구름 보통, 적란운.
일시적
05일 12시부터 05일 16시까지 (UTC)
여러 방향의 바람 21kt
고도 5000ft 상공 구름 많음, 적란운.
뇌우, 비
전환 중
06일 05시부터 06일 07시까지 (UTC)
여러 방향의 바람 2kt

TAF: UGTB 051100Z 0512/0612 32015KT 9999 SCT055CB TX29/0612Z TN16/0602Z TEMPO 0512/0516 VRB21KT TSRA BKN050CB BECMG 0605/0607 VRB02KT NSC

4,000개 이상의 공항 관측 자료 및 예보 (METAR 및 TAF 보고).

지도상에서 검색 가능한 기상관측소가 노란 점과 빨간 점으로 표시되어 있습니다.

기상관측소 명을 보려면 표시 위로 마우스를 이동하세요.

날씨 관측과 예보를 보려면 클릭하세요.

지도 변경 : 확대하려면 엑스 표시가 있는 녹색 버튼, 축소하려면 빼기 표시가 있는 녹색 버튼, 다음 페이지의 지도를 보려면 녹색 화살표를 클릭하세요.


METAR-TAF: